createdAt,value
2023-05-16T00:00:10.996Z,13.21
2023-05-16T00:02:46.419Z,13.27
2023-05-16T00:05:15.606Z,13.27
2023-05-16T00:07:46.783Z,13.31
2023-05-16T00:10:15.155Z,13.30
2023-05-16T00:12:44.436Z,13.38
2023-05-16T00:15:14.302Z,13.38
2023-05-16T00:17:46.254Z,13.28
2023-05-16T00:20:17.640Z,13.15
2023-05-16T00:22:46.305Z,13.10
2023-05-16T00:25:14.869Z,13.07
2023-05-16T00:27:43.106Z,13.13
2023-05-16T00:30:15.092Z,13.17
2023-05-16T00:32:47.637Z,13.14
2023-05-16T00:35:20.064Z,13.17
2023-05-16T00:37:48.939Z,13.14
2023-05-16T00:40:17.471Z,13.14
2023-05-16T00:42:46.009Z,13.18
2023-05-16T00:45:16.707Z,13.18
2023-05-16T00:47:46.744Z,13.27
2023-05-16T00:50:15.061Z,13.28
2023-05-16T00:52:44.265Z,13.31
2023-05-16T00:55:15.976Z,13.31
2023-05-16T00:57:44.474Z,13.30
2023-05-16T01:00:15.452Z,13.28
2023-05-16T01:02:44.724Z,13.25
2023-05-16T01:05:17.320Z,13.24
2023-05-16T01:07:46.883Z,13.23
2023-05-16T01:10:15.403Z,13.21
2023-05-16T01:12:52.417Z,13.21
2023-05-16T01:15:27.576Z,13.25
2023-05-16T01:18:02.267Z,13.23
2023-05-16T01:20:40.231Z,13.25
2023-05-16T01:23:26.749Z,13.31
2023-05-16T01:26:09.726Z,13.30
2023-05-16T01:28:39.456Z,13.28
2023-05-16T01:31:07.904Z,13.32
2023-05-16T01:33:43.948Z,13.32
2023-05-16T01:36:18.876Z,13.32
2023-05-16T01:38:59.022Z,13.28
2023-05-16T01:41:36.967Z,13.21
2023-05-16T01:44:11.052Z,13.18
2023-05-16T01:46:46.381Z,13.03
2023-05-16T01:49:21.598Z,13.03
2023-05-16T01:51:57.284Z,13.04
2023-05-16T01:54:33.063Z,12.93
2023-05-16T01:57:06.052Z,12.93
2023-05-16T01:59:35.610Z,12.94
2023-05-16T02:02:05.438Z,12.99
2023-05-16T02:04:38.995Z,12.87
2023-05-16T02:07:07.481Z,12.92
2023-05-16T02:09:36.018Z,12.87
2023-05-16T02:12:07.955Z,12.82
2023-05-16T02:14:36.319Z,12.75
2023-05-16T02:17:06.055Z,12.79
2023-05-16T02:19:34.871Z,12.75
2023-05-16T02:22:03.464Z,12.73
2023-05-16T02:24:31.804Z,12.65
2023-05-16T02:27:00.835Z,12.56
2023-05-16T02:29:32.069Z,12.48
2023-05-16T02:32:00.513Z,12.56
2023-05-16T02:34:35.701Z,12.49
2023-05-16T02:37:04.351Z,12.52
2023-05-16T02:39:34.241Z,12.41
2023-05-16T02:42:03.748Z,12.52
2023-05-16T02:44:34.210Z,12.49
2023-05-16T02:47:02.717Z,12.49
2023-05-16T02:49:31.356Z,12.55
2023-05-16T02:51:59.813Z,12.46
2023-05-16T02:54:28.534Z,12.45
2023-05-16T02:56:58.701Z,12.48
2023-05-16T02:59:28.159Z,12.38
2023-05-16T03:02:00.524Z,12.38
2023-05-16T03:04:29.536Z,12.38
2023-05-16T03:06:59.949Z,12.36
2023-05-16T03:09:30.487Z,12.31
2023-05-16T03:11:59.781Z,12.21
2023-05-16T03:14:28.906Z,12.25
2023-05-16T03:16:59.087Z,12.01
2023-05-16T03:19:28.286Z,11.99
2023-05-16T03:21:57.337Z,12.02
2023-05-16T03:24:26.230Z,12.07
2023-05-16T03:26:56.292Z,12.13
2023-05-16T03:29:27.171Z,12.24
2023-05-16T03:31:57.671Z,12.20
2023-05-16T03:34:29.465Z,12.21
2023-05-16T03:37:00.145Z,12.41
2023-05-16T03:39:29.526Z,12.35
2023-05-16T03:41:58.185Z,12.29
2023-05-16T03:44:26.442Z,12.24
2023-05-16T03:46:56.011Z,12.24
2023-05-16T03:49:28.572Z,12.25
2023-05-16T03:51:57.517Z,12.22
2023-05-16T03:54:26.278Z,12.22
2023-05-16T03:56:55.476Z,12.36
2023-05-16T03:59:24.178Z,12.49
2023-05-16T04:01:54.085Z,12.62
2023-05-16T04:04:22.565Z,12.67
2023-05-16T04:06:52.348Z,12.69
2023-05-16T04:09:20.735Z,12.72
2023-05-16T04:11:48.932Z,12.83
2023-05-16T04:14:17.357Z,12.86
2023-05-16T04:16:45.663Z,12.73
2023-05-16T04:19:14.208Z,12.79
2023-05-16T04:21:42.686Z,12.90
2023-05-16T04:24:12.409Z,12.99
2023-05-16T04:26:40.929Z,12.94
2023-05-16T04:29:09.157Z,12.73
2023-05-16T04:31:37.864Z,12.70
2023-05-16T04:34:06.332Z,12.92
2023-05-16T04:36:35.532Z,13.02
2023-05-16T04:39:06.345Z,12.96
2023-05-16T04:41:36.261Z,13.00
2023-05-16T04:44:05.166Z,12.92
2023-05-16T04:46:33.601Z,12.84
2023-05-16T04:49:01.764Z,12.90
2023-05-16T04:51:30.420Z,12.97
2023-05-16T04:53:59.205Z,13.02
2023-05-16T04:56:27.917Z,13.07
2023-05-16T04:58:58.072Z,13.07
2023-05-16T05:01:26.375Z,12.93
2023-05-16T05:03:55.278Z,12.97
2023-05-16T05:06:23.801Z,13.04
2023-05-16T05:08:52.073Z,13.14
2023-05-16T05:11:20.384Z,13.24
2023-05-16T05:13:50.261Z,13.18
2023-05-16T05:16:23.290Z,13.14
2023-05-16T05:18:53.107Z,13.24
2023-05-16T05:21:25.593Z,13.31
2023-05-16T05:23:54.153Z,13.24
2023-05-16T05:26:22.881Z,13.30
2023-05-16T05:29:03.891Z,13.38
2023-05-16T05:31:35.899Z,13.25
2023-05-16T05:34:04.853Z,13.28
2023-05-16T05:36:33.460Z,13.34
2023-05-16T05:39:05.424Z,13.37
2023-05-16T05:41:33.787Z,13.38
2023-05-16T05:44:03.382Z,13.50
2023-05-16T05:46:31.740Z,13.61
2023-05-16T05:49:02.114Z,13.63
2023-05-16T05:51:30.483Z,13.62
2023-05-16T05:53:59.284Z,13.63
2023-05-16T05:56:29.499Z,13.58
2023-05-16T05:59:01.181Z,13.57
2023-05-16T06:01:30.213Z,13.54
2023-05-16T06:03:59.703Z,13.61
2023-05-16T06:06:31.876Z,13.69
2023-05-16T06:09:01.049Z,13.63
2023-05-16T06:11:29.184Z,13.66
2023-05-16T06:13:57.693Z,13.63
2023-05-16T06:16:27.725Z,13.58
2023-05-16T06:18:56.289Z,13.58
2023-05-16T06:21:24.669Z,13.71
2023-05-16T06:24:00.818Z,13.72
2023-05-16T06:26:29.694Z,13.82
2023-05-16T06:28:57.952Z,13.99
2023-05-16T06:31:27.184Z,13.99
2023-05-16T06:33:55.727Z,14.00
2023-05-16T06:36:26.989Z,14.03
2023-05-16T06:38:58.368Z,14.06
2023-05-16T06:41:26.458Z,14.00
2023-05-16T06:43:54.694Z,14.06
2023-05-16T06:46:24.302Z,14.02
2023-05-16T06:48:55.355Z,14.03
2023-05-16T06:51:25.784Z,14.06
2023-05-16T06:53:54.668Z,14.09
2023-05-16T06:56:31.793Z,14.10
2023-05-16T06:59:02.690Z,14.06
2023-05-16T07:01:33.404Z,14.12
2023-05-16T07:04:01.864Z,14.16
2023-05-16T07:06:30.228Z,14.17
2023-05-16T07:08:58.704Z,14.17
2023-05-16T07:11:28.321Z,14.12
2023-05-16T07:13:56.843Z,14.23
2023-05-16T07:16:28.830Z,14.19
2023-05-16T07:18:57.270Z,14.20
2023-05-16T07:21:25.796Z,14.20
2023-05-16T07:23:54.243Z,14.16
2023-05-16T07:26:23.434Z,14.12
2023-05-16T07:28:53.273Z,14.20
2023-05-16T07:31:22.189Z,14.24
2023-05-16T07:33:50.701Z,14.21
2023-05-16T07:36:20.784Z,14.23
2023-05-16T07:38:49.344Z,14.19
2023-05-16T07:41:17.691Z,14.20
2023-05-16T07:43:46.169Z,14.26
2023-05-16T07:46:16.244Z,14.24
2023-05-16T07:48:44.690Z,14.27
2023-05-16T07:51:15.132Z,14.26
2023-05-16T07:53:43.372Z,14.20
2023-05-16T07:56:12.236Z,14.27
2023-05-16T07:58:40.969Z,14.40
2023-05-16T08:01:09.335Z,14.37
2023-05-16T08:03:39.655Z,14.37
2023-05-16T08:06:09.765Z,14.47
2023-05-16T08:08:38.507Z,14.48
2023-05-16T08:11:06.846Z,14.54
2023-05-16T08:13:35.427Z,14.54
2023-05-16T08:16:04.537Z,14.52
2023-05-16T08:18:33.785Z,14.54
2023-05-16T08:21:05.349Z,14.60
2023-05-16T08:23:33.594Z,14.67
2023-05-16T08:26:02.208Z,14.49
2023-05-16T08:28:31.212Z,14.56
2023-05-16T08:31:00.750Z,14.37
2023-05-16T08:33:29.003Z,14.41
2023-05-16T08:35:57.491Z,14.47
2023-05-16T08:38:30.020Z,14.33
2023-05-16T08:40:58.584Z,14.38
2023-05-16T08:43:27.069Z,14.41
2023-05-16T08:45:56.435Z,14.42
2023-05-16T08:48:25.925Z,14.40
2023-05-16T08:50:59.434Z,14.48
2023-05-16T08:53:33.866Z,14.52
2023-05-16T08:56:03.594Z,14.64
2023-05-16T08:58:34.644Z,14.69
2023-05-16T09:01:06.877Z,14.72
2023-05-16T09:03:36.348Z,14.74
2023-05-16T09:06:06.697Z,14.81
2023-05-16T09:08:37.825Z,14.78
2023-05-16T09:11:06.369Z,14.95
2023-05-16T09:13:34.765Z,14.96
2023-05-16T09:16:11.664Z,14.82
2023-05-16T09:18:40.643Z,14.75
2023-05-16T09:21:09.033Z,14.74
2023-05-16T09:23:41.070Z,14.69
2023-05-16T09:26:09.700Z,14.78
2023-05-16T09:28:39.700Z,14.92
2023-05-16T09:31:21.983Z,15.09
2023-05-16T09:33:51.329Z,15.09
2023-05-16T09:36:19.866Z,15.16
2023-05-16T09:38:51.161Z,15.05
2023-05-16T09:41:24.414Z,14.96
2023-05-16T09:43:56.750Z,14.95
2023-05-16T09:46:30.388Z,14.88
2023-05-16T09:48:58.698Z,14.86
2023-05-16T09:51:28.747Z,14.88
2023-05-16T09:54:00.775Z,14.92
2023-05-16T09:56:31.111Z,14.82
2023-05-16T09:58:59.492Z,14.79
2023-05-16T10:01:28.027Z,14.82
2023-05-16T10:03:56.869Z,14.86
2023-05-16T10:06:25.808Z,14.78
2023-05-16T10:08:54.248Z,14.78
2023-05-16T10:11:24.256Z,14.69
2023-05-16T10:13:53.952Z,14.77
2023-05-16T10:16:24.395Z,14.60
2023-05-16T10:18:53.890Z,14.64
2023-05-16T10:21:24.156Z,14.71
2023-05-16T10:23:54.844Z,14.69
2023-05-16T10:26:26.317Z,14.68
2023-05-16T10:28:56.906Z,14.72
2023-05-16T10:31:26.974Z,14.67
2023-05-16T10:33:56.390Z,14.67
2023-05-16T10:36:26.397Z,14.77
2023-05-16T10:38:56.648Z,14.79
2023-05-16T10:41:27.977Z,14.81
2023-05-16T10:44:01.541Z,14.85
2023-05-16T10:46:31.109Z,14.89
2023-05-16T10:49:00.049Z,15.05
2023-05-16T10:51:39.105Z,15.06
2023-05-16T10:54:12.011Z,15.02
2023-05-16T10:56:43.356Z,15.00
2023-05-16T10:59:25.709Z,15.00
2023-05-16T11:01:55.749Z,14.93
2023-05-16T11:04:24.894Z,14.93
2023-05-16T11:06:59.137Z,14.88
2023-05-16T11:09:33.320Z,14.91
2023-05-16T11:12:14.757Z,14.91
2023-05-16T11:14:45.464Z,14.91
2023-05-16T11:17:15.626Z,14.92
2023-05-16T11:19:45.878Z,14.95
2023-05-16T11:22:23.118Z,14.99
2023-05-16T11:24:53.961Z,15.05
2023-05-16T11:27:25.575Z,15.20
2023-05-16T11:29:55.503Z,15.36
2023-05-16T11:32:25.783Z,15.34
2023-05-16T11:34:54.582Z,15.49
2023-05-16T11:37:23.272Z,15.55
2023-05-16T11:39:52.161Z,15.43
2023-05-16T11:42:21.036Z,15.40
2023-05-16T11:44:51.165Z,15.39
2023-05-16T11:47:19.972Z,15.46
2023-05-16T11:49:49.545Z,15.53
2023-05-16T11:52:21.573Z,15.54
2023-05-16T11:54:50.279Z,15.55
2023-05-16T11:57:19.385Z,15.55
2023-05-16T11:59:55.659Z,15.47
2023-05-16T12:02:24.337Z,15.67
2023-05-16T12:04:53.612Z,15.54
2023-05-16T12:07:23.258Z,15.70
2023-05-16T12:09:55.536Z,15.54
2023-05-16T12:12:24.121Z,15.58
2023-05-16T12:14:57.835Z,15.65
2023-05-16T12:17:26.245Z,15.64
2023-05-16T12:19:55.121Z,15.53
2023-05-16T12:22:24.114Z,15.57
2023-05-16T12:24:52.859Z,15.60
2023-05-16T12:27:23.722Z,15.75
2023-05-16T12:29:59.690Z,15.74
2023-05-16T12:32:28.131Z,15.84
2023-05-16T12:34:58.160Z,15.80
2023-05-16T12:37:27.859Z,15.80
2023-05-16T12:40:01.594Z,15.78
2023-05-16T12:42:31.962Z,15.84
2023-05-16T12:45:01.786Z,15.88
2023-05-16T12:47:37.486Z,15.92
2023-05-16T12:50:14.280Z,15.84
2023-05-16T12:52:53.515Z,15.85
2023-05-16T12:55:23.401Z,15.85
2023-05-16T12:57:53.953Z,15.87
2023-05-16T13:00:24.496Z,15.98
2023-05-16T13:02:54.239Z,15.98
2023-05-16T13:05:25.610Z,16.16
2023-05-16T13:07:54.842Z,16.15
2023-05-16T13:10:23.252Z,16.16
2023-05-16T13:12:51.774Z,16.19
2023-05-16T13:15:21.995Z,16.19
2023-05-16T13:17:55.207Z,16.19
2023-05-16T13:20:26.306Z,16.13
2023-05-16T13:22:55.779Z,16.13
2023-05-16T13:25:28.131Z,16.12
2023-05-16T13:27:56.798Z,16.11
2023-05-16T13:30:25.522Z,16.12
2023-05-16T13:32:55.474Z,16.39
2023-05-16T13:35:25.327Z,16.34
2023-05-16T13:37:55.038Z,16.33
2023-05-16T13:40:24.398Z,16.36
2023-05-16T13:42:55.587Z,16.43
2023-05-16T13:45:33.930Z,16.53
2023-05-16T13:48:05.722Z,16.78
2023-05-16T13:50:34.235Z,16.81
2023-05-16T13:53:03.238Z,16.83
2023-05-16T13:55:31.837Z,16.80
2023-05-16T13:58:00.340Z,16.90
2023-05-16T14:00:44.431Z,16.87
2023-05-16T14:03:16.356Z,16.83
2023-05-16T14:05:44.925Z,16.60
2023-05-16T14:08:14.434Z,16.59
2023-05-16T14:10:43.265Z,16.45
2023-05-16T14:13:13.609Z,16.30
2023-05-16T14:15:42.852Z,16.40
2023-05-16T14:18:15.900Z,16.18
2023-05-16T14:20:45.234Z,16.13
2023-05-16T14:23:14.065Z,16.18
2023-05-16T14:25:42.815Z,16.22
2023-05-16T14:28:11.874Z,16.32
2023-05-16T14:30:41.338Z,16.15
2023-05-16T14:33:12.494Z,16.11
2023-05-16T14:35:42.632Z,16.09
2023-05-16T14:38:12.280Z,16.01
2023-05-16T14:40:41.264Z,16.05
2023-05-16T14:43:11.446Z,15.95
2023-05-16T14:45:40.432Z,15.87
2023-05-16T14:48:09.144Z,15.84
2023-05-16T14:50:37.525Z,15.82
2023-05-16T14:53:07.395Z,15.84
2023-05-16T14:55:35.756Z,15.77
2023-05-16T14:58:04.447Z,15.77
2023-05-16T15:00:33.548Z,15.77
2023-05-16T15:03:05.468Z,15.75
2023-05-16T15:05:37.440Z,15.71
2023-05-16T15:08:07.490Z,15.67
2023-05-16T15:10:40.561Z,15.63
2023-05-16T15:13:09.258Z,15.67
2023-05-16T15:15:39.741Z,15.65
2023-05-16T15:18:09.157Z,15.71
2023-05-16T15:20:38.113Z,15.77
2023-05-16T15:23:08.547Z,15.64
2023-05-16T15:25:37.030Z,15.70
2023-05-16T15:28:06.181Z,15.74
2023-05-16T15:30:34.749Z,15.78
2023-05-16T15:33:03.939Z,15.77
2023-05-16T15:35:32.505Z,15.73
2023-05-16T15:38:01.891Z,15.70
2023-05-16T15:40:31.647Z,15.71
2023-05-16T15:43:00.296Z,15.71
2023-05-16T15:45:33.844Z,15.67
2023-05-16T15:48:03.562Z,15.70
2023-05-16T15:50:32.717Z,15.73
2023-05-16T15:53:02.361Z,15.68
2023-05-16T15:55:32.464Z,15.70
2023-05-16T15:58:03.988Z,15.67
2023-05-16T16:00:33.976Z,15.61
2023-05-16T16:03:02.796Z,15.64
2023-05-16T16:05:36.558Z,15.64
2023-05-16T16:08:08.161Z,15.61
2023-05-16T16:10:38.137Z,15.60
2023-05-16T16:13:08.733Z,15.65
2023-05-16T16:15:37.141Z,15.60
2023-05-16T16:18:07.197Z,15.63
2023-05-16T16:20:35.990Z,15.60
2023-05-16T16:23:04.856Z,15.60
2023-05-16T16:25:33.302Z,15.55
2023-05-16T16:28:05.125Z,15.63
2023-05-16T16:30:34.141Z,15.55
2023-05-16T16:33:07.109Z,15.60
2023-05-16T16:35:35.671Z,15.61
2023-05-16T16:38:07.247Z,15.60
2023-05-16T16:40:38.654Z,15.58
2023-05-16T16:43:10.697Z,15.63
2023-05-16T16:45:39.331Z,15.58
2023-05-16T16:48:09.244Z,15.60
2023-05-16T16:50:39.230Z,15.64
2023-05-16T16:53:07.924Z,15.63
2023-05-16T16:55:41.459Z,15.60
2023-05-16T16:58:13.049Z,15.61
2023-05-16T17:00:44.594Z,15.64
2023-05-16T17:03:14.510Z,15.58
2023-05-16T17:05:49.155Z,15.58
2023-05-16T17:08:18.465Z,15.63
2023-05-16T17:10:47.306Z,15.57
2023-05-16T17:13:20.576Z,15.60
2023-05-16T17:15:54.431Z,15.60
2023-05-16T17:18:24.276Z,15.63
2023-05-16T17:20:54.124Z,15.61
2023-05-16T17:23:25.167Z,15.61
2023-05-16T17:25:54.130Z,15.55
2023-05-16T17:28:27.080Z,15.58
2023-05-16T17:30:58.350Z,15.64
2023-05-16T17:33:28.408Z,15.68
2023-05-16T17:35:58.441Z,15.65
2023-05-16T17:38:32.304Z,15.58
2023-05-16T17:41:01.068Z,15.55
2023-05-16T17:43:34.725Z,15.64
2023-05-16T17:46:04.090Z,15.68
2023-05-16T17:48:33.910Z,15.74
2023-05-16T17:51:10.272Z,15.75
2023-05-16T17:53:43.935Z,15.84
2023-05-16T17:56:14.912Z,15.82
2023-05-16T17:58:48.101Z,15.82
2023-05-16T18:01:16.720Z,15.85
2023-05-16T18:03:48.074Z,15.92
2023-05-16T18:06:17.727Z,15.87
2023-05-16T18:08:52.111Z,15.73
2023-05-16T18:11:24.829Z,15.64
2023-05-16T18:13:57.015Z,15.65
2023-05-16T18:16:27.979Z,15.58
2023-05-16T18:18:57.949Z,15.53
2023-05-16T18:21:36.892Z,15.53
2023-05-16T18:24:14.197Z,15.54
2023-05-16T18:26:51.758Z,15.64
2023-05-16T18:29:26.631Z,15.55
2023-05-16T18:31:55.656Z,15.57
2023-05-16T18:34:25.288Z,15.60
2023-05-16T18:36:57.364Z,15.64
2023-05-16T18:39:26.928Z,15.65
2023-05-16T18:41:56.636Z,15.65
2023-05-16T18:44:30.168Z,15.75
2023-05-16T18:47:00.454Z,15.71
2023-05-16T18:49:29.698Z,15.63
2023-05-16T18:51:58.926Z,15.65
2023-05-16T18:54:29.281Z,15.60
2023-05-16T18:56:58.486Z,15.63
2023-05-16T18:59:34.774Z,15.68
2023-05-16T19:02:04.509Z,15.73
2023-05-16T19:04:34.079Z,15.70
2023-05-16T19:07:05.159Z,15.73
2023-05-16T19:09:37.668Z,15.77
2023-05-16T19:12:10.435Z,15.65
2023-05-16T19:14:42.218Z,15.70
2023-05-16T19:17:11.974Z,15.70
2023-05-16T19:19:45.349Z,15.64
2023-05-16T19:22:16.006Z,15.60
2023-05-16T19:24:48.746Z,15.58
2023-05-16T19:27:18.119Z,15.55
2023-05-16T19:29:50.285Z,15.58
2023-05-16T19:32:23.349Z,15.53
2023-05-16T19:34:52.819Z,15.46
2023-05-16T19:37:24.339Z,15.47
2023-05-16T19:39:53.480Z,15.33
2023-05-16T19:42:25.568Z,15.39
2023-05-16T19:44:55.917Z,15.36
2023-05-16T19:47:25.120Z,15.32
2023-05-16T19:49:55.170Z,15.27
2023-05-16T19:52:26.021Z,15.22
2023-05-16T19:54:57.689Z,15.27
2023-05-16T19:57:30.650Z,15.27
2023-05-16T20:00:05.184Z,15.30
2023-05-16T20:02:36.319Z,15.40
2023-05-16T20:05:05.432Z,15.25
2023-05-16T20:07:34.184Z,15.23
2023-05-16T20:10:03.012Z,15.23
2023-05-16T20:12:31.561Z,15.18
2023-05-16T20:15:08.290Z,15.20
2023-05-16T20:17:36.879Z,15.23
2023-05-16T20:20:06.406Z,15.10
2023-05-16T20:22:38.541Z,15.13
2023-05-16T20:25:11.525Z,15.07
2023-05-16T20:27:49.954Z,15.13
2023-05-16T20:30:22.373Z,15.22
2023-05-16T20:32:51.279Z,15.22
2023-05-16T20:35:24.194Z,15.29
2023-05-16T20:37:53.799Z,15.34
2023-05-16T20:40:25.732Z,15.47
2023-05-16T20:42:54.165Z,15.47
2023-05-16T20:45:27.305Z,15.58
2023-05-16T20:47:58.383Z,15.47
2023-05-16T20:50:33.685Z,15.44
2023-05-16T20:53:02.858Z,15.39
2023-05-16T20:55:33.569Z,15.40
2023-05-16T20:58:10.990Z,15.37
2023-05-16T21:00:42.408Z,15.43
2023-05-16T21:03:13.301Z,15.46
2023-05-16T21:05:43.263Z,15.47
2023-05-16T21:08:14.654Z,15.53
2023-05-16T21:10:43.650Z,15.44
2023-05-16T21:13:12.869Z,15.40
2023-05-16T21:15:45.408Z,15.43
2023-05-16T21:18:14.683Z,15.42
2023-05-16T21:20:43.330Z,15.39
2023-05-16T21:23:15.520Z,15.34
2023-05-16T21:25:45.573Z,15.40
2023-05-16T21:28:19.387Z,15.58
2023-05-16T21:30:54.447Z,15.58
2023-05-16T21:33:24.431Z,15.50
2023-05-16T21:36:02.550Z,15.50
2023-05-16T21:38:32.307Z,15.42
2023-05-16T21:41:03.776Z,15.50
2023-05-16T21:43:33.550Z,15.47
2023-05-16T21:46:07.941Z,15.44
2023-05-16T21:48:40.498Z,15.34
2023-05-16T21:51:09.786Z,15.27
2023-05-16T21:53:39.171Z,15.20
2023-05-16T21:56:09.650Z,15.34
2023-05-16T21:58:39.724Z,15.34
2023-05-16T22:01:11.356Z,15.39
2023-05-16T22:03:44.628Z,15.36
2023-05-16T22:06:13.018Z,15.32
2023-05-16T22:08:42.021Z,15.39
2023-05-16T22:11:11.094Z,15.32
2023-05-16T22:13:41.569Z,15.29
2023-05-16T22:16:14.908Z,15.37
2023-05-16T22:18:45.360Z,15.33
2023-05-16T22:21:17.215Z,15.36
2023-05-16T22:23:47.112Z,15.34
2023-05-16T22:26:16.103Z,15.33
2023-05-16T22:28:47.870Z,15.34
2023-05-16T22:31:23.123Z,15.25
2023-05-16T22:34:03.973Z,15.19
2023-05-16T22:36:34.538Z,15.18
2023-05-16T22:39:04.748Z,15.15
2023-05-16T22:41:36.517Z,15.05
2023-05-16T22:44:04.744Z,14.99
2023-05-16T22:46:35.698Z,14.99
2023-05-16T22:49:04.703Z,14.96
2023-05-16T22:51:35.048Z,14.93
2023-05-16T22:54:05.150Z,14.86
2023-05-16T22:56:35.485Z,14.85
2023-05-16T22:59:07.810Z,14.78
2023-05-16T23:01:40.882Z,14.74
2023-05-16T23:04:09.518Z,14.77
2023-05-16T23:06:39.426Z,14.77
2023-05-16T23:09:07.703Z,14.78
2023-05-16T23:11:36.184Z,14.72
2023-05-16T23:14:04.887Z,14.67
2023-05-16T23:16:33.319Z,14.64
2023-05-16T23:19:05.539Z,14.65
2023-05-16T23:21:40.013Z,14.67
2023-05-16T23:24:08.731Z,14.64
2023-05-16T23:26:37.436Z,14.64
2023-05-16T23:29:06.781Z,14.65
2023-05-16T23:31:35.652Z,14.60
2023-05-16T23:34:05.495Z,14.52
2023-05-16T23:36:35.027Z,14.48
2023-05-16T23:39:06.088Z,14.52
2023-05-16T23:41:34.573Z,14.48
2023-05-16T23:44:05.989Z,14.41
2023-05-16T23:46:39.844Z,14.27
2023-05-16T23:49:18.478Z,14.34
2023-05-16T23:51:57.648Z,14.36
2023-05-16T23:54:32.754Z,14.26
2023-05-16T23:57:04.623Z,14.24
2023-05-16T23:59:36.995Z,14.27
